sensor_id;sensor_type;location;lat;lon;timestamp;pressure;altitude;pressure_sealevel;temperature
48854;BMP280;34673;52.808;17.856;2022-10-04T00:06:58;100355.91;;;10.27
48854;BMP280;34673;52.808;17.856;2022-10-04T00:09:44;100396.25;;;10.52
48854;BMP280;34673;52.808;17.856;2022-10-04T00:12:34;100376.56;;;10.31
48854;BMP280;34673;52.808;17.856;2022-10-04T00:15:14;100404.91;;;10.51
48854;BMP280;34673;52.808;17.856;2022-10-04T00:17:43;100404.88;;;10.54
48854;BMP280;34673;52.808;17.856;2022-10-04T00:25:50;100403.13;;;10.59
48854;BMP280;34673;52.808;17.856;2022-10-04T00:31:39;100397.06;;;10.62
48854;BMP280;34673;52.808;17.856;2022-10-04T00:36:52;100382.47;;;10.53
48854;BMP280;34673;52.808;17.856;2022-10-04T00:39:25;100403.09;;;10.62
48854;BMP280;34673;52.808;17.856;2022-10-04T00:42:21;100402.22;;;10.62
48854;BMP280;34673;52.808;17.856;2022-10-04T00:45:01;100396.22;;;10.61
48854;BMP280;34673;52.808;17.856;2022-10-04T00:48:29;100387.63;;;10.50
48854;BMP280;34673;52.808;17.856;2022-10-04T00:51:03;100380.75;;;10.49
48854;BMP280;34673;52.808;17.856;2022-10-04T00:56:02;100384.22;;;10.51
48854;BMP280;34673;52.808;17.856;2022-10-04T01:01:34;100382.47;;;10.50
48854;BMP280;34673;52.808;17.856;2022-10-04T01:04:06;100396.25;;;10.52
48854;BMP280;34673;52.808;17.856;2022-10-04T01:06:40;100370.47;;;10.43
48854;BMP280;34673;52.808;17.856;2022-10-04T01:09:09;100408.22;;;10.65
48854;BMP280;34673;52.808;17.856;2022-10-04T01:11:44;100397.91;;;10.62
48854;BMP280;34673;52.808;17.856;2022-10-04T01:14:37;100398.72;;;10.66
48854;BMP280;34673;52.808;17.856;2022-10-04T01:17:07;100400.47;;;10.65
48854;BMP280;34673;52.808;17.856;2022-10-04T01:19:34;100391.03;;;10.58
48854;BMP280;34673;52.808;17.856;2022-10-04T01:22:14;100396.19;;;10.64
48854;BMP280;34673;52.808;17.856;2022-10-04T01:24:44;100356.69;;;10.41
48854;BMP280;34673;52.808;17.856;2022-10-04T01:27:35;100392.75;;;10.62
48854;BMP280;34673;52.808;17.856;2022-10-04T01:30:08;100382.44;;;10.56
48854;BMP280;34673;52.808;17.856;2022-10-04T01:32:37;100396.22;;;10.61
48854;BMP280;34673;52.808;17.856;2022-10-04T01:35:08;100391.06;;;10.55
48854;BMP280;34673;52.808;17.856;2022-10-04T01:37:37;100397.09;;;10.57
48854;BMP280;34673;52.808;17.856;2022-10-04T01:40:07;100377.34;;;10.46
48854;BMP280;34673;52.808;17.856;2022-10-04T01:42:41;100356.72;;;10.38
48854;BMP280;34673;52.808;17.856;2022-10-04T01:45:15;100389.38;;;10.51
48854;BMP280;34673;52.808;17.856;2022-10-04T01:50:27;100400.63;;;10.46
48854;BMP280;34673;52.808;17.856;2022-10-04T01:53:01;100401.47;;;10.45
48854;BMP280;34673;52.808;17.856;2022-10-04T01:55:35;100396.38;;;10.37
48854;BMP280;34673;52.808;17.856;2022-10-04T01:58:13;100399.81;;;10.37
48854;BMP280;34673;52.808;17.856;2022-10-04T02:00:56;100379.22;;;10.20
48854;BMP280;34673;52.808;17.856;2022-10-04T02:03:34;100402.41;;;10.31
48854;BMP280;34673;52.808;17.856;2022-10-04T02:06:07;100399.00;;;10.29
48854;BMP280;34673;52.808;17.856;2022-10-04T02:08:38;100394.69;;;10.27
48854;BMP280;34673;52.808;17.856;2022-10-04T02:11:07;100394.72;;;10.20
48854;BMP280;34673;52.808;17.856;2022-10-04T02:13:37;100387.84;;;10.16
48854;BMP280;34673;52.808;17.856;2022-10-04T02:16:10;100392.13;;;10.19
48854;BMP280;34673;52.808;17.856;2022-10-04T02:18:39;100393.88;;;10.17
48854;BMP280;34673;52.808;17.856;2022-10-04T02:21:10;100399.06;;;10.15
48854;BMP280;34673;52.808;17.856;2022-10-04T02:23:38;100345.00;;;9.75
48854;BMP280;34673;52.808;17.856;2022-10-04T02:26:08;100401.66;;;10.11
48854;BMP280;34673;52.808;17.856;2022-10-04T02:28:37;100406.84;;;10.06
48854;BMP280;34673;52.808;17.856;2022-10-04T02:31:05;100357.06;;;9.73
48854;BMP280;34673;52.808;17.856;2022-10-04T02:33:56;100408.59;;;10.01
48854;BMP280;34673;52.808;17.856;2022-10-04T02:36:26;100412.06;;;9.97
48854;BMP280;34673;52.808;17.856;2022-10-04T02:41:46;100410.34;;;9.99
48854;BMP280;34673;52.808;17.856;2022-10-04T02:44:45;100410.34;;;9.99
48854;BMP280;34673;52.808;17.856;2022-10-04T02:47:22;100418.97;;;9.96
48854;BMP280;34673;52.808;17.856;2022-10-04T02:49:59;100417.25;;;9.97
48854;BMP280;34673;52.808;17.856;2022-10-04T02:57:33;100420.69;;;9.93
48854;BMP280;34673;52.808;17.856;2022-10-04T03:00:22;100405.25;;;9.84
48854;BMP280;34673;52.808;17.856;2022-10-04T03:05:38;100412.09;;;9.88
48854;BMP280;34673;52.808;17.856;2022-10-04T03:08:06;100415.56;;;9.87
48854;BMP280;34673;52.808;17.856;2022-10-04T03:10:34;100415.56;;;9.87
48854;BMP280;34673;52.808;17.856;2022-10-04T03:13:02;100407.81;;;9.84
48854;BMP280;34673;52.808;17.856;2022-10-04T03:15:30;100377.75;;;9.67
48854;BMP280;34673;52.808;17.856;2022-10-04T03:17:58;100418.16;;;9.84
48854;BMP280;34673;52.808;17.856;2022-10-04T03:20:26;100424.19;;;9.86
48854;BMP280;34673;52.808;17.856;2022-10-04T03:22:54;100419.88;;;9.82
48854;BMP280;34673;52.808;17.856;2022-10-04T03:25:27;100398.44;;;9.61
48854;BMP280;34673;52.808;17.856;2022-10-04T03:27:59;100424.19;;;9.80
48854;BMP280;34673;52.808;17.856;2022-10-04T03:30:29;100434.53;;;9.83
48854;BMP280;34673;52.808;17.856;2022-10-04T03:32:58;100434.53;;;9.83
48854;BMP280;34673;52.808;17.856;2022-10-04T03:35:35;100393.28;;;9.55
48854;BMP280;34673;52.808;17.856;2022-10-04T03:38:07;100352.03;;;9.30
48854;BMP280;34673;52.808;17.856;2022-10-04T03:40:41;100425.06;;;9.74
48854;BMP280;34673;52.808;17.856;2022-10-04T03:43:11;100437.97;;;9.79
48854;BMP280;34673;52.808;17.856;2022-10-04T03:45:40;100386.41;;;9.52
48854;BMP280;34673;52.808;17.856;2022-10-04T03:48:12;100432.78;;;9.82
48854;BMP280;34673;52.808;17.856;2022-10-04T03:50:45;100365.78;;;9.39
48854;BMP280;34673;52.808;17.856;2022-10-04T03:53:35;100432.81;;;9.79
48854;BMP280;34673;52.808;17.856;2022-10-04T03:56:27;100421.66;;;9.67
48854;BMP280;34673;52.808;17.856;2022-10-04T03:58:56;100408.78;;;9.58
48854;BMP280;34673;52.808;17.856;2022-10-04T04:06:49;100446.59;;;9.77
48854;BMP280;34673;52.808;17.856;2022-10-04T04:09:34;100415.69;;;9.56
48854;BMP280;34673;52.808;17.856;2022-10-04T04:12:10;100441.44;;;9.74
48854;BMP280;34673;52.808;17.856;2022-10-04T04:14:40;100453.47;;;9.79
48854;BMP280;34673;52.808;17.856;2022-10-04T04:19:57;100460.38;;;9.76
48854;BMP280;34673;52.808;17.856;2022-10-04T04:22:33;100458.66;;;9.75
48854;BMP280;34673;52.808;17.856;2022-10-04T04:25:04;100458.69;;;9.72
48854;BMP280;34673;52.808;17.856;2022-10-04T04:27:36;100468.16;;;9.72
48854;BMP280;34673;52.808;17.856;2022-10-04T04:30:07;100443.19;;;9.66
48854;BMP280;34673;52.808;17.856;2022-10-04T04:32:42;100467.28;;;9.74
48854;BMP280;34673;52.808;17.856;2022-10-04T04:35:23;100451.81;;;9.59
48854;BMP280;34673;52.808;17.856;2022-10-04T04:38:09;100472.44;;;9.71
48854;BMP280;34673;52.808;17.856;2022-10-04T04:40:39;100474.16;;;9.71
48854;BMP280;34673;52.808;17.856;2022-10-04T04:43:13;100465.56;;;9.67
48854;BMP280;34673;52.808;17.856;2022-10-04T04:45:44;100475.91;;;9.67
48854;BMP280;34673;52.808;17.856;2022-10-04T04:48:33;100480.22;;;9.67
48854;BMP280;34673;52.808;17.856;2022-10-04T04:51:03;100462.16;;;9.53
48854;BMP280;34673;52.808;17.856;2022-10-04T04:53:31;100458.72;;;9.54
48854;BMP280;34673;52.808;17.856;2022-10-04T04:56:00;100477.63;;;9.62
48854;BMP280;34673;52.808;17.856;2022-10-04T05:01:05;100477.63;;;9.62
48854;BMP280;34673;52.808;17.856;2022-10-04T05:03:34;100486.28;;;9.58
48854;BMP280;34673;52.808;17.856;2022-10-04T05:06:02;100483.69;;;9.58
48854;BMP280;34673;52.808;17.856;2022-10-04T05:08:32;100481.09;;;9.58
48854;BMP280;34673;52.808;17.856;2022-10-04T05:19:05;100494.00;;;9.61
48854;BMP280;34673;52.808;17.856;2022-10-04T05:21:34;100494.00;;;9.58
48854;BMP280;34673;52.808;17.856;2022-10-04T05:24:11;100498.31;;;9.56
48854;BMP280;34673;52.808;17.856;2022-10-04T05:26:40;100501.75;;;9.58
48854;BMP280;34673;52.808;17.856;2022-10-04T05:29:14;100489.72;;;9.51
48854;BMP280;34673;52.808;17.856;2022-10-04T05:34:35;100513.78;;;9.62
48854;BMP280;34673;52.808;17.856;2022-10-04T05:42:50;100525.84;;;9.66
48854;BMP280;34673;52.808;17.856;2022-10-04T05:45:21;100525.84;;;9.68
48854;BMP280;34673;52.808;17.856;2022-10-04T05:48:01;100525.84;;;9.66
48854;BMP280;34673;52.808;17.856;2022-10-04T05:50:41;100506.94;;;9.58
48854;BMP280;34673;52.808;17.856;2022-10-04T05:53:26;100497.44;;;9.49
48854;BMP280;34673;52.808;17.856;2022-10-04T06:04:15;100552.50;;;9.87
48854;BMP280;34673;52.808;17.856;2022-10-04T06:22:45;100565.41;;;9.99
48854;BMP280;34673;52.808;17.856;2022-10-04T06:25:46;100564.53;;;10.02
48854;BMP280;34673;52.808;17.856;2022-10-04T06:32:24;100524.09;;;9.81
48854;BMP280;34673;52.808;17.856;2022-10-04T06:40:36;100574.81;;;10.14
48854;BMP280;34673;52.808;17.856;2022-10-04T06:43:18;100579.13;;;10.16
48854;BMP280;34673;52.808;17.856;2022-10-04T06:48:50;100586.03;;;10.20
48854;BMP280;34673;52.808;17.856;2022-10-04T06:54:43;100591.19;;;10.27
48854;BMP280;34673;52.808;17.856;2022-10-04T06:57:55;100592.91;;;10.31
48854;BMP280;34673;52.808;17.856;2022-10-04T07:04:30;100605.81;;;10.40
48854;BMP280;34673;52.808;17.856;2022-10-04T07:09:26;100604.06;;;10.48
48854;BMP280;34673;52.808;17.856;2022-10-04T07:12:00;100608.34;;;10.52
48854;BMP280;34673;52.808;17.856;2022-10-04T07:14:36;100603.19;;;10.54
48854;BMP280;34673;52.808;17.856;2022-10-04T07:17:11;100604.88;;;10.62
48854;BMP280;34673;52.808;17.856;2022-10-04T07:19:51;100615.16;;;10.72
48854;BMP280;34673;52.808;17.856;2022-10-04T07:22:34;100608.25;;;10.74
48854;BMP280;34673;52.808;17.856;2022-10-04T07:25:18;100611.66;;;10.85
48854;BMP280;34673;52.808;17.856;2022-10-04T07:27:54;100609.91;;;10.87
48854;BMP280;34673;52.808;17.856;2022-10-04T07:33:23;100609.91;;;10.90
48854;BMP280;34673;52.808;17.856;2022-10-04T07:36:00;100617.63;;;10.98
48854;BMP280;34673;52.808;17.856;2022-10-04T07:38:31;100616.75;;;11.00
48854;BMP280;34673;52.808;17.856;2022-10-04T07:41:06;100623.69;;;10.97
48854;BMP280;34673;52.808;17.856;2022-10-04T07:43:54;100623.66;;;10.98
48854;BMP280;34673;52.808;17.856;2022-10-04T07:49:14;100608.19;;;10.92
48854;BMP280;34673;52.808;17.856;2022-10-04T07:51:58;100609.91;;;10.92
48854;BMP280;34673;52.808;17.856;2022-10-04T07:54:42;100633.13;;;11.04
48854;BMP280;34673;52.808;17.856;2022-10-04T07:57:29;100639.16;;;11.07
48854;BMP280;34673;52.808;17.856;2022-10-04T08:05:27;100645.97;;;11.18
48854;BMP280;34673;52.808;17.856;2022-10-04T08:13:46;100650.22;;;11.32
48854;BMP280;34673;52.808;17.856;2022-10-04T08:24:36;100663.09;;;11.42
48854;BMP280;34673;52.808;17.856;2022-10-04T08:30:45;100668.22;;;11.52
48854;BMP280;34673;52.808;17.856;2022-10-04T08:39:48;100660.25;;;11.79
48854;BMP280;34673;52.808;17.856;2022-10-04T08:45:09;100671.38;;;11.91
48854;BMP280;34673;52.808;17.856;2022-10-04T09:14:12;100686.38;;;12.53
48854;BMP280;34673;52.808;17.856;2022-10-04T09:16:50;100680.09;;;12.74
48854;BMP280;34673;52.808;17.856;2022-10-04T09:20:00;100651.63;;;12.66
48854;BMP280;34673;52.808;17.856;2022-10-04T09:30:13;100694.72;;;12.79
48854;BMP280;34673;52.808;17.856;2022-10-04T09:35:52;100710.47;;;12.64
48854;BMP280;34673;52.808;17.856;2022-10-04T09:41:46;100694.91;;;12.64
48854;BMP280;34673;52.808;17.856;2022-10-04T10:14:48;100693.28;;;13.25
48854;BMP280;34673;52.808;17.856;2022-10-04T10:17:26;100731.88;;;13.54
48854;BMP280;34673;52.808;17.856;2022-10-04T10:23:05;100739.28;;;13.82
48854;BMP280;34673;52.808;17.856;2022-10-04T10:28:29;100736.97;;;13.63
48854;BMP280;34673;52.808;17.856;2022-10-04T10:34:09;100740.56;;;13.53
48854;BMP280;34673;52.808;17.856;2022-10-04T10:40:22;100746.47;;;13.64
48854;BMP280;34673;52.808;17.856;2022-10-04T10:51:00;100731.72;;;13.66
48854;BMP280;34673;52.808;17.856;2022-10-04T10:57:09;100751.91;;;14.06
48854;BMP280;34673;52.808;17.856;2022-10-04T11:00:18;100748.31;;;14.13
48854;BMP280;34673;52.808;17.856;2022-10-04T11:20:24;100765.94;;;13.96
48854;BMP280;34673;52.808;17.856;2022-10-04T11:40:29;100769.38;;;14.49
48854;BMP280;34673;52.808;17.856;2022-10-04T11:43:38;100759.50;;;14.70
48854;BMP280;34673;52.808;17.856;2022-10-04T11:49:46;100764.44;;;14.85
48854;BMP280;34673;52.808;17.856;2022-10-04T11:55:35;100765.25;;;14.87
48854;BMP280;34673;52.808;17.856;2022-10-04T12:21:47;100754.81;;;15.30
48854;BMP280;34673;52.808;17.856;2022-10-04T12:24:45;100759.75;;;15.44
48854;BMP280;34673;52.808;17.856;2022-10-04T12:27:26;100755.25;;;15.51
48854;BMP280;34673;52.808;17.856;2022-10-04T12:30:16;100740.75;;;15.39
48854;BMP280;34673;52.808;17.856;2022-10-04T12:33:21;100761.72;;;15.33
48854;BMP280;34673;52.808;17.856;2022-10-04T12:36:10;100758.34;;;15.28
48854;BMP280;34673;52.808;17.856;2022-10-04T12:47:34;100762.16;;;15.12
48854;BMP280;34673;52.808;17.856;2022-10-04T13:06:48;100717.97;;;14.63
48854;BMP280;34673;52.808;17.856;2022-10-04T13:26:01;100754.94;;;14.82
48854;BMP280;34673;52.808;17.856;2022-10-04T13:31:28;100760.81;;;14.92
48854;BMP280;34673;52.808;17.856;2022-10-04T13:50:45;100788.81;;;14.81
48854;BMP280;34673;52.808;17.856;2022-10-04T13:53:19;100787.16;;;14.77
48854;BMP280;34673;52.808;17.856;2022-10-04T13:56:44;100794.97;;;14.77
48854;BMP280;34673;52.808;17.856;2022-10-04T14:16:13;100791.59;;;14.72
48854;BMP280;34673;52.808;17.856;2022-10-04T14:40:44;100790.03;;;14.63
48854;BMP280;34673;52.808;17.856;2022-10-04T14:49:50;100789.19;;;14.59
48854;BMP280;34673;52.808;17.856;2022-10-04T14:58:49;100782.41;;;14.49
48854;BMP280;34673;52.808;17.856;2022-10-04T15:01:22;100790.19;;;14.51
48854;BMP280;34673;52.808;17.856;2022-10-04T15:06:55;100780.06;;;14.34
48854;BMP280;34673;52.808;17.856;2022-10-04T15:20:35;100814.00;;;14.28
48854;BMP280;34673;52.808;17.856;2022-10-04T15:23:28;100784.88;;;14.04
48854;BMP280;34673;52.808;17.856;2022-10-04T15:26:04;100749.75;;;13.75
48854;BMP280;34673;52.808;17.856;2022-10-04T15:33:58;100761.00;;;13.78
48854;BMP280;34673;52.808;17.856;2022-10-04T15:42:14;100831.63;;;14.10
48854;BMP280;34673;52.808;17.856;2022-10-04T15:53:38;100849.22;;;13.93
48854;BMP280;34673;52.808;17.856;2022-10-04T16:01:43;100838.97;;;13.81
48854;BMP280;34673;52.808;17.856;2022-10-04T16:07:18;100839.06;;;13.74
48854;BMP280;34673;52.808;17.856;2022-10-04T16:13:04;100837.47;;;13.64
48854;BMP280;34673;52.808;17.856;2022-10-04T16:15:38;100838.41;;;13.59
48854;BMP280;34673;52.808;17.856;2022-10-04T16:23:28;100840.28;;;13.47
48854;BMP280;34673;52.808;17.856;2022-10-04T16:26:02;100837.72;;;13.43
48854;BMP280;34673;52.808;17.856;2022-10-04T16:29:04;100825.75;;;13.29
48854;BMP280;34673;52.808;17.856;2022-10-04T16:31:42;100844.75;;;13.35
48854;BMP280;34673;52.808;17.856;2022-10-04T16:34:28;100850.88;;;13.30
48854;BMP280;34673;52.808;17.856;2022-10-04T16:45:42;100845.88;;;13.07
48854;BMP280;34673;52.808;17.856;2022-10-04T16:47:53;100851.97;;;13.05
48854;BMP280;34673;52.808;17.856;2022-10-04T16:53:30;100858.97;;;12.97
48854;BMP280;34673;52.808;17.856;2022-10-04T16:56:14;100845.28;;;12.82
48854;BMP280;34673;52.808;17.856;2022-10-04T16:58:54;100864.22;;;12.91
48854;BMP280;34673;52.808;17.856;2022-10-04T17:14:49;100880.00;;;12.71
48854;BMP280;34673;52.808;17.856;2022-10-04T17:23:38;100893.88;;;12.65
48854;BMP280;34673;52.808;17.856;2022-10-04T17:38:19;100889.69;;;12.49
48854;BMP280;34673;52.808;17.856;2022-10-04T17:41:00;100896.63;;;12.47
48854;BMP280;34673;52.808;17.856;2022-10-04T17:46:34;100890.59;;;12.41
48854;BMP280;34673;52.808;17.856;2022-10-04T17:52:03;100895.78;;;12.41
48854;BMP280;34673;52.808;17.856;2022-10-04T17:54:52;100888.00;;;12.41
48854;BMP280;34673;52.808;17.856;2022-10-04T18:00:12;100887.22;;;12.30
48854;BMP280;34673;52.808;17.856;2022-10-04T18:02:53;100894.13;;;12.28
48854;BMP280;34673;52.808;17.856;2022-10-04T18:07:35;100894.22;;;12.19
48854;BMP280;34673;52.808;17.856;2022-10-04T18:10:25;100897.69;;;12.15
48854;BMP280;34673;52.808;17.856;2022-10-04T18:13:03;100897.69;;;12.12
48854;BMP280;34673;52.808;17.856;2022-10-04T18:15:47;100895.97;;;12.09
48854;BMP280;34673;52.808;17.856;2022-10-04T18:18:29;100896.00;;;12.05
48854;BMP280;34673;52.808;17.856;2022-10-04T18:21:27;100895.16;;;12.04
48854;BMP280;34673;52.808;17.856;2022-10-04T18:24:20;100897.75;;;12.03
48854;BMP280;34673;52.808;17.856;2022-10-04T18:27:01;100902.94;;;12.03
48854;BMP280;34673;52.808;17.856;2022-10-04T18:32:35;100896.06;;;11.95
48854;BMP280;34673;52.808;17.856;2022-10-04T18:35:37;100897.81;;;11.90
48854;BMP280;34673;52.808;17.856;2022-10-04T18:38:22;100903.00;;;11.84
48854;BMP280;34673;52.808;17.856;2022-10-04T18:41:02;100896.97;;;11.77
48854;BMP280;34673;52.808;17.856;2022-10-04T18:43:34;100890.06;;;11.76
48854;BMP280;34673;52.808;17.856;2022-10-04T18:46:21;100901.28;;;11.80
48854;BMP280;34673;52.808;17.856;2022-10-04T18:51:36;100911.66;;;11.77
48854;BMP280;34673;52.808;17.856;2022-10-04T19:03:15;100928.97;;;11.69
48854;BMP280;34673;52.808;17.856;2022-10-04T19:11:19;100913.47;;;11.60
48854;BMP280;34673;52.808;17.856;2022-10-04T19:20:00;100931.59;;;11.55
48854;BMP280;34673;52.808;17.856;2022-10-04T19:28:07;100935.97;;;11.48
48854;BMP280;34673;52.808;17.856;2022-10-04T19:36:23;100932.53;;;11.40
48854;BMP280;34673;52.808;17.856;2022-10-04T19:39:23;100927.34;;;11.40
48854;BMP280;34673;52.808;17.856;2022-10-04T19:41:58;100934.25;;;11.38
48854;BMP280;34673;52.808;17.856;2022-10-04T19:44:34;100923.91;;;11.35
48854;BMP280;34673;52.808;17.856;2022-10-04T19:52:25;100929.06;;;11.38
48854;BMP280;34673;52.808;17.856;2022-10-04T19:57:36;100918.69;;;11.38
48854;BMP280;34673;52.808;17.856;2022-10-04T20:00:13;100937.69;;;11.46
48854;BMP280;34673;52.808;17.856;2022-10-04T20:02:43;100934.22;;;11.47
48854;BMP280;34673;52.808;17.856;2022-10-04T20:05:19;100935.94;;;11.47
48854;BMP280;34673;52.808;17.856;2022-10-04T20:07:55;100936.81;;;11.41
48854;BMP280;34673;52.808;17.856;2022-10-04T20:10:33;100946.31;;;11.42
48854;BMP280;34673;52.808;17.856;2022-10-04T20:13:05;100958.41;;;11.43
48854;BMP280;34673;52.808;17.856;2022-10-04T20:26:07;100934.25;;;11.29
48854;BMP280;34673;52.808;17.856;2022-10-04T20:28:37;100946.34;;;11.30
48854;BMP280;34673;52.808;17.856;2022-10-04T20:34:22;100957.56;;;11.23
48854;BMP280;34673;52.808;17.856;2022-10-04T20:36:50;100960.19;;;11.18
48854;BMP280;34673;52.808;17.856;2022-10-04T20:44:53;100963.63;;;11.14
48854;BMP280;34673;52.808;17.856;2022-10-04T20:47:52;100961.91;;;11.12
48854;BMP280;34673;52.808;17.856;2022-10-04T20:50:23;100968.81;;;11.06
48854;BMP280;34673;52.808;17.856;2022-10-04T20:52:53;100968.81;;;11.03
48854;BMP280;34673;52.808;17.856;2022-10-04T20:55:32;100970.53;;;11.01
48854;BMP280;34673;52.808;17.856;2022-10-04T20:58:21;100970.53;;;11.04
48854;BMP280;34673;52.808;17.856;2022-10-04T21:00:51;100968.81;;;11.00
48854;BMP280;34673;52.808;17.856;2022-10-04T21:03:20;100968.81;;;11.00
48854;BMP280;34673;52.808;17.856;2022-10-04T21:06:07;100968.81;;;11.00
48854;BMP280;34673;52.808;17.856;2022-10-04T21:08:36;100965.34;;;10.92
48854;BMP280;34673;52.808;17.856;2022-10-04T21:11:19;100983.47;;;11.01
48854;BMP280;34673;52.808;17.856;2022-10-04T21:16:45;100982.59;;;10.96
48854;BMP280;34673;52.808;17.856;2022-10-04T21:21:59;100982.59;;;10.96
48854;BMP280;34673;52.808;17.856;2022-10-04T21:26:55;100984.34;;;10.97
48854;BMP280;34673;52.808;17.856;2022-10-04T21:29:22;100979.19;;;10.91
48854;BMP280;34673;52.808;17.856;2022-10-04T21:31:49;100965.38;;;10.86
48854;BMP280;34673;52.808;17.856;2022-10-04T21:34:17;100987.78;;;10.95
48854;BMP280;34673;52.808;17.856;2022-10-04T21:37:04;100977.44;;;10.90
48854;BMP280;34673;52.808;17.856;2022-10-04T21:39:32;100974.84;;;10.84
48854;BMP280;34673;52.808;17.856;2022-10-04T21:41:59;100980.03;;;10.89
48854;BMP280;34673;52.808;17.856;2022-10-04T21:44:27;100973.13;;;10.83
48854;BMP280;34673;52.808;17.856;2022-10-04T21:46:54;100977.44;;;10.87
48854;BMP280;34673;52.808;17.856;2022-10-04T21:49:21;100979.16;;;10.85
48854;BMP280;34673;52.808;17.856;2022-10-04T21:51:48;100986.06;;;10.83
48854;BMP280;34673;52.808;17.856;2022-10-04T21:54:16;100967.09;;;10.78
48854;BMP280;34673;52.808;17.856;2022-10-04T21:56:43;100985.19;;;10.81
48854;BMP280;34673;52.808;17.856;2022-10-04T21:59:11;100983.47;;;10.81
48854;BMP280;34673;52.808;17.856;2022-10-04T22:01:38;100967.94;;;10.77
48854;BMP280;34673;52.808;17.856;2022-10-04T22:04:05;100973.97;;;10.76
48854;BMP280;34673;52.808;17.856;2022-10-04T22:06:32;100974.84;;;10.76
48854;BMP280;34673;52.808;17.856;2022-10-04T22:08:59;100967.94;;;10.74
48854;BMP280;34673;52.808;17.856;2022-10-04T22:11:26;100968.81;;;10.76
48854;BMP280;34673;52.808;17.856;2022-10-04T22:13:53;100973.13;;;10.75
48854;BMP280;34673;52.808;17.856;2022-10-04T22:16:20;100978.28;;;10.77
48854;BMP280;34673;52.808;17.856;2022-10-04T22:18:48;100973.97;;;10.74
48854;BMP280;34673;52.808;17.856;2022-10-04T22:21:15;100970.53;;;10.72
48854;BMP280;34673;52.808;17.856;2022-10-04T22:23:43;100972.25;;;10.76
48854;BMP280;34673;52.808;17.856;2022-10-04T22:26:14;100967.06;;;10.75
48854;BMP280;34673;52.808;17.856;2022-10-04T22:28:53;100966.19;;;10.74
48854;BMP280;34673;52.808;17.856;2022-10-04T22:31:26;100965.34;;;10.74
48854;BMP280;34673;52.808;17.856;2022-10-04T22:33:54;100967.94;;;10.74
48854;BMP280;34673;52.808;17.856;2022-10-04T22:39:02;100955.00;;;10.74
48854;BMP280;34673;52.808;17.856;2022-10-04T22:41:33;100955.84;;;10.74
48854;BMP280;34673;52.808;17.856;2022-10-04T22:44:27;100949.81;;;10.74
48854;BMP280;34673;52.808;17.856;2022-10-04T22:46:57;100935.16;;;10.68
48854;BMP280;34673;52.808;17.856;2022-10-04T22:49:27;100942.94;;;10.73
48854;BMP280;34673;52.808;17.856;2022-10-04T22:51:55;100942.06;;;10.68
48854;BMP280;34673;52.808;17.856;2022-10-04T22:54:26;100947.22;;;10.71
48854;BMP280;34673;52.808;17.856;2022-10-04T22:56:55;100929.97;;;10.67
48854;BMP280;34673;52.808;17.856;2022-10-04T22:59:38;100936.84;;;10.69
48854;BMP280;34673;52.808;17.856;2022-10-04T23:02:18;100926.53;;;10.71
48854;BMP280;34673;52.808;17.856;2022-10-04T23:04:51;100922.22;;;10.70
48854;BMP280;34673;52.808;17.856;2022-10-04T23:07:19;100919.63;;;10.71
48854;BMP280;34673;52.808;17.856;2022-10-04T23:09:46;100905.81;;;10.68
48854;BMP280;34673;52.808;17.856;2022-10-04T23:12:13;100917.03;;;10.71
48854;BMP280;34673;52.808;17.856;2022-10-04T23:14:41;100907.53;;;10.72
48854;BMP280;34673;52.808;17.856;2022-10-04T23:17:21;100906.69;;;10.73
48854;BMP280;34673;52.808;17.856;2022-10-04T23:20:17;100898.06;;;10.74
48854;BMP280;34673;52.808;17.856;2022-10-04T23:22:44;100903.25;;;10.74
48854;BMP280;34673;52.808;17.856;2022-10-04T23:25:20;100910.16;;;10.78
48854;BMP280;34673;52.808;17.856;2022-10-04T23:27:49;100906.69;;;10.79
48854;BMP280;34673;52.808;17.856;2022-10-04T23:30:20;100905.81;;;10.80
48854;BMP280;34673;52.808;17.856;2022-10-04T23:32:51;100909.28;;;10.82
48854;BMP280;34673;52.808;17.856;2022-10-04T23:35:22;100892.91;;;10.83
48854;BMP280;34673;52.808;17.856;2022-10-04T23:37:50;100893.75;;;10.83
48854;BMP280;34673;52.808;17.856;2022-10-04T23:40:21;100882.53;;;10.86
48854;BMP280;34673;52.808;17.856;2022-10-04T23:42:55;100885.97;;;10.88
48854;BMP280;34673;52.808;17.856;2022-10-04T23:45:25;100887.72;;;10.89
48854;BMP280;34673;52.808;17.856;2022-10-04T23:47:55;100892.88;;;10.92
48854;BMP280;34673;52.808;17.856;2022-10-04T23:50:27;100892.88;;;10.92
48854;BMP280;34673;52.808;17.856;2022-10-04T23:52:57;100889.41;;;10.96
48854;BMP280;34673;52.808;17.856;2022-10-04T23:55:31;100884.22;;;10.96
48854;BMP280;34673;52.808;17.856;2022-10-04T23:57:59;100890.28;;;11.00
